Queensbury, United Kingdom
Current Conditions -  °F | °C
As of 1:20 PM on Tuesday 21 Oct 2014 (Local Time) from EGNM Reporting Station
Rain Showers Rain Showers  
Wind Chill: 39°   Ceiling: Unl
Heat Index: 48°   Visibility: 6mi
Dew Point: 41°   Wind: 33mph
Humidity: 76%   Direction: 290°WNW
Pressure: 29.53"   Gusts: 52mph
Location:  53.77°N, 1.92°W
Report Text: EGNM 211220Z 29029G45KT 9999 -SHRA FEW010 SCT025CB 09/05 Q1000
Loading
Personal Weather Stations






























Interactive Weather Map
Tropical Storm Tracking
New forecast layout! Learn more

10-Day Weather Forecast

Advertisements
Track Severe Weather on mobile